sensor_id;sensor_type;location;lat;lon;timestamp;pressure;altitude;pressure_sealevel;temperature;humidity
11124;BME280;5616;42.692;23.312;2023-07-29T00:01:54;94978.97;;;21.11;54.40
11124;BME280;5616;42.692;23.312;2023-07-29T00:04:21;94986.09;;;20.89;55.25
11124;BME280;5616;42.692;23.312;2023-07-29T00:06:48;94979.38;;;20.76;55.49
11124;BME280;5616;42.692;23.312;2023-07-29T00:09:14;94986.28;;;20.60;56.59
11124;BME280;5616;42.692;23.312;2023-07-29T00:11:42;94985.47;;;20.60;55.85
11124;BME280;5616;42.692;23.312;2023-07-29T00:14:09;94984.28;;;20.67;55.40
11124;BME280;5616;42.692;23.312;2023-07-29T00:16:36;94984.38;;;20.78;54.89
11124;BME280;5616;42.692;23.312;2023-07-29T00:19:03;94979.09;;;20.72;55.07
11124;BME280;5616;42.692;23.312;2023-07-29T00:21:30;94979.03;;;20.67;55.28
11124;BME280;5616;42.692;23.312;2023-07-29T00:23:56;94976.31;;;20.62;55.45
11124;BME280;5616;42.692;23.312;2023-07-29T00:26:25;94977.25;;;20.51;55.79
11124;BME280;5616;42.692;23.312;2023-07-29T00:28:55;94978.88;;;20.57;55.67
11124;BME280;5616;42.692;23.312;2023-07-29T00:31:22;94977.88;;;20.58;55.17
11124;BME280;5616;42.692;23.312;2023-07-29T00:33:50;94971.34;;;20.61;55.03
11124;BME280;5616;42.692;23.312;2023-07-29T00:36:18;94976.78;;;20.54;55.96
11124;BME280;5616;42.692;23.312;2023-07-29T00:38:45;94968.75;;;20.44;55.50
11124;BME280;5616;42.692;23.312;2023-07-29T00:41:11;94976.09;;;20.42;55.84
11124;BME280;5616;42.692;23.312;2023-07-29T00:43:41;94976.25;;;20.57;55.84
11124;BME280;5616;42.692;23.312;2023-07-29T00:46:10;94970.72;;;20.54;55.89
11124;BME280;5616;42.692;23.312;2023-07-29T00:48:38;94965.59;;;20.42;56.69
11124;BME280;5616;42.692;23.312;2023-07-29T00:51:05;94966.44;;;20.26;57.58
11124;BME280;5616;42.692;23.312;2023-07-29T00:53:32;94968.78;;;20.06;57.89
11124;BME280;5616;42.692;23.312;2023-07-29T00:55:59;94970.72;;;20.15;57.77
11124;BME280;5616;42.692;23.312;2023-07-29T00:58:26;94967.25;;;20.10;58.01
11124;BME280;5616;42.692;23.312;2023-07-29T01:00:53;94968.22;;;20.04;57.91
11124;BME280;5616;42.692;23.312;2023-07-29T01:03:22;94963.66;;;20.16;57.95
11124;BME280;5616;42.692;23.312;2023-07-29T01:05:58;94962.75;;;19.89;59.00
11124;BME280;5616;42.692;23.312;2023-07-29T01:08:32;94965.63;;;19.87;59.41
11124;BME280;5616;42.692;23.312;2023-07-29T01:11:06;94961.06;;;19.78;59.94
11124;BME280;5616;42.692;23.312;2023-07-29T01:13:44;94963.91;;;19.76;60.17
11124;BME280;5616;42.692;23.312;2023-07-29T01:16:17;94962.41;;;19.80;59.70
11124;BME280;5616;42.692;23.312;2023-07-29T01:18:49;94956.34;;;19.80;59.63
11124;BME280;5616;42.692;23.312;2023-07-29T01:21:19;94952.00;;;19.69;59.97
11124;BME280;5616;42.692;23.312;2023-07-29T01:23:52;94962.94;;;19.66;60.51
11124;BME280;5616;42.692;23.312;2023-07-29T01:26:19;94962.06;;;19.60;60.63
11124;BME280;5616;42.692;23.312;2023-07-29T01:28:45;94968.03;;;19.56;59.98
11124;BME280;5616;42.692;23.312;2023-07-29T01:31:17;94965.41;;;19.56;59.65
11124;BME280;5616;42.692;23.312;2023-07-29T01:33:55;94959.94;;;19.57;60.43
11124;BME280;5616;42.692;23.312;2023-07-29T01:36:26;94958.03;;;19.52;59.91
11124;BME280;5616;42.692;23.312;2023-07-29T01:38:56;94961.13;;;19.49;59.42
11124;BME280;5616;42.692;23.312;2023-07-29T01:41:24;94961.59;;;19.46;60.24
11124;BME280;5616;42.692;23.312;2023-07-29T01:43:52;94961.13;;;19.49;63.63
11124;BME280;5616;42.692;23.312;2023-07-29T01:46:20;94960.06;;;19.84;59.28
11124;BME280;5616;42.692;23.312;2023-07-29T01:48:47;94962.31;;;19.75;59.02
11124;BME280;5616;42.692;23.312;2023-07-29T01:51:14;94964.84;;;19.70;59.52
11124;BME280;5616;42.692;23.312;2023-07-29T01:53:41;94961.81;;;19.78;59.05
11124;BME280;5616;42.692;23.312;2023-07-29T01:56:09;94963.59;;;19.73;59.83
11124;BME280;5616;42.692;23.312;2023-07-29T01:58:39;94959.31;;;19.67;59.47
11124;BME280;5616;42.692;23.312;2023-07-29T02:01:06;94966.94;;;19.51;60.21
11124;BME280;5616;42.692;23.312;2023-07-29T02:03:33;94967.34;;;19.43;60.63
11124;BME280;5616;42.692;23.312;2023-07-29T02:06:00;94972.00;;;19.58;60.42
11124;BME280;5616;42.692;23.312;2023-07-29T02:08:27;94963.81;;;19.71;59.56
11124;BME280;5616;42.692;23.312;2023-07-29T02:10:53;94969.13;;;19.76;59.99
11124;BME280;5616;42.692;23.312;2023-07-29T02:13:22;94968.13;;;19.61;60.38
11124;BME280;5616;42.692;23.312;2023-07-29T02:15:48;94971.13;;;19.52;61.02
11124;BME280;5616;42.692;23.312;2023-07-29T02:18:15;94970.91;;;19.54;61.24
11124;BME280;5616;42.692;23.312;2023-07-29T02:20:42;94975.31;;;19.37;61.67
11124;BME280;5616;42.692;23.312;2023-07-29T02:23:14;94974.59;;;19.25;62.27
11124;BME280;5616;42.692;23.312;2023-07-29T02:25:41;94987.03;;;19.34;62.15
11124;BME280;5616;42.692;23.312;2023-07-29T02:28:08;94983.50;;;19.12;62.91
11124;BME280;5616;42.692;23.312;2023-07-29T02:30:36;94971.53;;;19.00;62.98
11124;BME280;5616;42.692;23.312;2023-07-29T02:33:03;94977.19;;;19.08;63.53
11124;BME280;5616;42.692;23.312;2023-07-29T02:35:30;94973.53;;;19.26;63.27
11124;BME280;5616;42.692;23.312;2023-07-29T02:37:57;94977.00;;;18.98;64.00
11124;BME280;5616;42.692;23.312;2023-07-29T02:40:24;94977.94;;;18.92;64.82
11124;BME280;5616;42.692;23.312;2023-07-29T02:42:52;94976.16;;;18.81;65.56
11124;BME280;5616;42.692;23.312;2023-07-29T02:45:19;94974.31;;;18.93;65.22
11124;BME280;5616;42.692;23.312;2023-07-29T02:47:47;94977.47;;;18.95;65.40
11124;BME280;5616;42.692;23.312;2023-07-29T02:50:14;94980.97;;;19.01;65.19
11124;BME280;5616;42.692;23.312;2023-07-29T02:52:40;94978.28;;;18.96;65.50
11124;BME280;5616;42.692;23.312;2023-07-29T02:55:07;94971.81;;;18.86;65.46
11124;BME280;5616;42.692;23.312;2023-07-29T02:57:34;94978.22;;;18.79;66.76
11124;BME280;5616;42.692;23.312;2023-07-29T03:00:01;94986.50;;;18.87;65.92
11124;BME280;5616;42.692;23.312;2023-07-29T03:02:28;94972.38;;;18.88;65.92
11124;BME280;5616;42.692;23.312;2023-07-29T03:04:56;94980.09;;;18.67;66.25
11124;BME280;5616;42.692;23.312;2023-07-29T03:07:23;94983.53;;;18.84;66.07
11124;BME280;5616;42.692;23.312;2023-07-29T03:09:50;94997.09;;;18.81;66.07
11124;BME280;5616;42.692;23.312;2023-07-29T03:12:17;94998.97;;;18.69;66.54
11124;BME280;5616;42.692;23.312;2023-07-29T03:14:47;94992.56;;;18.76;65.46
11124;BME280;5616;42.692;23.312;2023-07-29T03:17:14;94995.78;;;18.67;66.33
11124;BME280;5616;42.692;23.312;2023-07-29T03:19:41;94995.63;;;18.73;66.27
11124;BME280;5616;42.692;23.312;2023-07-29T03:22:09;94991.56;;;18.66;66.34
11124;BME280;5616;42.692;23.312;2023-07-29T03:24:35;94992.63;;;18.53;67.17
11124;BME280;5616;42.692;23.312;2023-07-29T03:27:03;94994.69;;;18.40;67.40
11124;BME280;5616;42.692;23.312;2023-07-29T03:29:30;94992.97;;;18.33;67.87
11124;BME280;5616;42.692;23.312;2023-07-29T03:31:57;95000.81;;;18.45;66.86
11124;BME280;5616;42.692;23.312;2023-07-29T03:34:24;94998.97;;;18.57;66.31
11124;BME280;5616;42.692;23.312;2023-07-29T03:36:51;95003.94;;;18.70;65.71
11124;BME280;5616;42.692;23.312;2023-07-29T03:39:19;95001.66;;;18.74;65.41
11124;BME280;5616;42.692;23.312;2023-07-29T03:41:46;94995.88;;;18.72;64.61
11124;BME280;5616;42.692;23.312;2023-07-29T03:44:12;94994.53;;;18.69;63.88
11124;BME280;5616;42.692;23.312;2023-07-29T03:46:39;94998.09;;;18.52;64.51
11124;BME280;5616;42.692;23.312;2023-07-29T03:49:07;95002.88;;;18.31;65.05
11124;BME280;5616;42.692;23.312;2023-07-29T03:51:34;94999.00;;;18.46;65.13
11124;BME280;5616;42.692;23.312;2023-07-29T03:54:01;94997.34;;;18.68;63.97
11124;BME280;5616;42.692;23.312;2023-07-29T03:56:29;94996.59;;;18.67;64.67
11124;BME280;5616;42.692;23.312;2023-07-29T03:59:02;94991.28;;;18.79;64.10
11124;BME280;5616;42.692;23.312;2023-07-29T04:01:29;94993.00;;;18.85;63.90
11124;BME280;5616;42.692;23.312;2023-07-29T04:03:56;94997.28;;;18.91;63.32
11124;BME280;5616;42.692;23.312;2023-07-29T04:06:23;95005.97;;;19.08;62.70
11124;BME280;5616;42.692;23.312;2023-07-29T04:08:50;95003.53;;;19.18;62.52
11124;BME280;5616;42.692;23.312;2023-07-29T04:11:17;95016.00;;;19.28;62.62
11124;BME280;5616;42.692;23.312;2023-07-29T04:13:45;95015.03;;;19.17;63.04
11124;BME280;5616;42.692;23.312;2023-07-29T04:16:11;95009.44;;;19.25;62.24
11124;BME280;5616;42.692;23.312;2023-07-29T04:18:38;95006.91;;;19.30;61.67
11124;BME280;5616;42.692;23.312;2023-07-29T04:21:05;95003.13;;;19.38;61.46
11124;BME280;5616;42.692;23.312;2023-07-29T04:23:32;95004.47;;;19.40;61.40
11124;BME280;5616;42.692;23.312;2023-07-29T04:25:59;95005.94;;;19.36;61.33
11124;BME280;5616;42.692;23.312;2023-07-29T04:28:25;95006.06;;;19.13;62.22
11124;BME280;5616;42.692;23.312;2023-07-29T04:30:54;95009.91;;;19.22;62.11
11124;BME280;5616;42.692;23.312;2023-07-29T04:33:21;95004.50;;;19.29;61.74
11124;BME280;5616;42.692;23.312;2023-07-29T04:35:48;95014.75;;;19.30;62.30
11124;BME280;5616;42.692;23.312;2023-07-29T04:38:14;95013.59;;;19.38;61.79
11124;BME280;5616;42.692;23.312;2023-07-29T04:40:41;95012.41;;;19.45;61.45
11124;BME280;5616;42.692;23.312;2023-07-29T04:43:08;95010.28;;;19.59;61.10
11124;BME280;5616;42.692;23.312;2023-07-29T04:45:35;95013.44;;;19.61;62.19
11124;BME280;5616;42.692;23.312;2023-07-29T04:48:03;95011.44;;;19.68;61.09
11124;BME280;5616;42.692;23.312;2023-07-29T04:50:30;95014.41;;;19.72;62.02
11124;BME280;5616;42.692;23.312;2023-07-29T04:52:57;95014.16;;;19.90;60.65
11124;BME280;5616;42.692;23.312;2023-07-29T04:55:23;95018.34;;;20.07;60.51
11124;BME280;5616;42.692;23.312;2023-07-29T04:57:50;95023.81;;;20.23;58.94
11124;BME280;5616;42.692;23.312;2023-07-29T05:00:17;95026.06;;;20.31;58.83
11124;BME280;5616;42.692;23.312;2023-07-29T05:02:45;95021.16;;;20.39;58.51
11124;BME280;5616;42.692;23.312;2023-07-29T05:05:13;95024.91;;;20.43;58.60
11124;BME280;5616;42.692;23.312;2023-07-29T05:07:40;95026.69;;;20.59;57.71
11124;BME280;5616;42.692;23.312;2023-07-29T05:10:07;95027.81;;;20.68;58.18
11124;BME280;5616;42.692;23.312;2023-07-29T05:12:34;95037.22;;;20.86;57.07
11124;BME280;5616;42.692;23.312;2023-07-29T05:15:01;95039.78;;;21.03;56.62
11124;BME280;5616;42.692;23.312;2023-07-29T05:17:28;95038.38;;;21.17;55.27
11124;BME280;5616;42.692;23.312;2023-07-29T05:19:54;95041.66;;;21.29;55.05
11124;BME280;5616;42.692;23.312;2023-07-29T05:22:23;95039.38;;;21.64;61.01
11124;BME280;5616;42.692;23.312;2023-07-29T05:24:50;95035.47;;;21.72;54.84
11124;BME280;5616;42.692;23.312;2023-07-29T05:27:17;95034.34;;;21.89;54.52
11124;BME280;5616;42.692;23.312;2023-07-29T05:29:44;95034.97;;;22.02;53.52
11124;BME280;5616;42.692;23.312;2023-07-29T05:32:10;95034.53;;;22.15;52.37
11124;BME280;5616;42.692;23.312;2023-07-29T05:34:37;95038.78;;;22.26;53.38
11124;BME280;5616;42.692;23.312;2023-07-29T05:37:05;95040.44;;;22.42;52.34
11124;BME280;5616;42.692;23.312;2023-07-29T05:39:33;95042.97;;;22.64;50.96
11124;BME280;5616;42.692;23.312;2023-07-29T05:42:00;95042.78;;;22.80;51.26
11124;BME280;5616;42.692;23.312;2023-07-29T05:44:29;95043.16;;;23.04;50.46
11124;BME280;5616;42.692;23.312;2023-07-29T05:46:56;95046.59;;;23.14;49.34
11124;BME280;5616;42.692;23.312;2023-07-29T05:49:23;95046.16;;;23.38;48.91
11124;BME280;5616;42.692;23.312;2023-07-29T05:51:50;95044.63;;;23.57;48.61
11124;BME280;5616;42.692;23.312;2023-07-29T05:54:18;95037.50;;;23.78;48.00
11124;BME280;5616;42.692;23.312;2023-07-29T05:56:46;95036.97;;;24.01;46.80
11124;BME280;5616;42.692;23.312;2023-07-29T05:59:13;95040.16;;;24.23;46.51
11124;BME280;5616;42.692;23.312;2023-07-29T06:01:40;95039.06;;;24.24;46.35
11124;BME280;5616;42.692;23.312;2023-07-29T06:04:07;95041.97;;;24.07;47.70
11124;BME280;5616;42.692;23.312;2023-07-29T06:06:34;95035.63;;;24.44;45.54
11124;BME280;5616;42.692;23.312;2023-07-29T06:09:01;95039.50;;;24.66;46.05
11124;BME280;5616;42.692;23.312;2023-07-29T06:11:27;95044.16;;;25.05;45.45
11124;BME280;5616;42.692;23.312;2023-07-29T06:13:55;95039.56;;;25.20;44.36
11124;BME280;5616;42.692;23.312;2023-07-29T06:16:22;95042.34;;;25.44;42.95
11124;BME280;5616;42.692;23.312;2023-07-29T06:18:49;95034.13;;;25.45;42.60
11124;BME280;5616;42.692;23.312;2023-07-29T06:21:18;95038.97;;;25.77;41.78
11124;BME280;5616;42.692;23.312;2023-07-29T06:23:45;95036.56;;;26.15;40.80
11124;BME280;5616;42.692;23.312;2023-07-29T06:26:12;95029.91;;;26.69;40.09
11124;BME280;5616;42.692;23.312;2023-07-29T06:28:39;95028.75;;;27.23;39.06
11124;BME280;5616;42.692;23.312;2023-07-29T06:31:07;95021.88;;;27.78;38.17
11124;BME280;5616;42.692;23.312;2023-07-29T06:33:34;95030.47;;;27.88;37.60
11124;BME280;5616;42.692;23.312;2023-07-29T06:36:01;95018.47;;;28.10;37.67
11124;BME280;5616;42.692;23.312;2023-07-29T06:38:27;95017.34;;;27.97;37.74
11124;BME280;5616;42.692;23.312;2023-07-29T06:40:54;95017.19;;;27.14;38.83
11124;BME280;5616;42.692;23.312;2023-07-29T06:43:21;95006.91;;;28.01;37.13
11124;BME280;5616;42.692;23.312;2023-07-29T06:45:48;95011.38;;;28.05;37.17
11124;BME280;5616;42.692;23.312;2023-07-29T06:48:16;95003.47;;;28.60;36.54
11124;BME280;5616;42.692;23.312;2023-07-29T06:50:44;95003.91;;;28.80;36.60
11124;BME280;5616;42.692;23.312;2023-07-29T06:53:11;95009.09;;;29.26;34.71
11124;BME280;5616;42.692;23.312;2023-07-29T06:55:37;95018.38;;;29.51;35.41
11124;BME280;5616;42.692;23.312;2023-07-29T06:58:04;95004.03;;;29.96;35.06
11124;BME280;5616;42.692;23.312;2023-07-29T07:00:31;95011.56;;;30.03;34.15
11124;BME280;5616;42.692;23.312;2023-07-29T07:02:58;95017.94;;;30.85;33.33
11124;BME280;5616;42.692;23.312;2023-07-29T07:05:26;95011.19;;;31.62;31.61
11124;BME280;5616;42.692;23.312;2023-07-29T07:07:53;95013.06;;;32.21;30.78
11124;BME280;5616;42.692;23.312;2023-07-29T07:10:19;95012.59;;;32.74;30.21
11124;BME280;5616;42.692;23.312;2023-07-29T07:12:46;95011.41;;;32.92;29.48
11124;BME280;5616;42.692;23.312;2023-07-29T07:15:13;95010.03;;;33.65;29.05
11124;BME280;5616;42.692;23.312;2023-07-29T07:17:40;95013.97;;;34.45;27.56
11124;BME280;5616;42.692;23.312;2023-07-29T07:20:07;95015.06;;;34.89;27.00
11124;BME280;5616;42.692;23.312;2023-07-29T07:22:35;95013.59;;;35.04;27.03
11124;BME280;5616;42.692;23.312;2023-07-29T07:25:02;95009.13;;;34.84;27.63
11124;BME280;5616;42.692;23.312;2023-07-29T07:27:29;95013.59;;;35.28;26.55
11124;BME280;5616;42.692;23.312;2023-07-29T07:29:56;95007.66;;;35.87;25.80
11124;BME280;5616;42.692;23.312;2023-07-29T07:32:23;95008.63;;;34.45;27.23
11124;BME280;5616;42.692;23.312;2023-07-29T07:34:50;95000.91;;;34.32;28.45
11124;BME280;5616;42.692;23.312;2023-07-29T07:37:16;94997.63;;;36.27;24.79
11124;BME280;5616;42.692;23.312;2023-07-29T07:39:45;94997.16;;;38.08;23.20
11124;BME280;5616;42.692;23.312;2023-07-29T07:42:12;95004.59;;;40.50;21.11
11124;BME280;5616;42.692;23.312;2023-07-29T07:44:38;95006.88;;;42.26;18.95
11124;BME280;5616;42.692;23.312;2023-07-29T07:47:05;95010.09;;;43.41;17.67
11124;BME280;5616;42.692;23.312;2023-07-29T07:49:32;95012.47;;;44.36;17.25
11124;BME280;5616;42.692;23.312;2023-07-29T07:51:59;95014.06;;;44.85;16.73
11124;BME280;5616;42.692;23.312;2023-07-29T07:54:25;95005.16;;;45.70;16.24
11124;BME280;5616;42.692;23.312;2023-07-29T07:56:54;95012.75;;;45.07;16.31
11124;BME280;5616;42.692;23.312;2023-07-29T07:59:20;95009.91;;;43.97;17.11
11124;BME280;5616;42.692;23.312;2023-07-29T08:01:47;95011.53;;;45.12;15.95
11124;BME280;5616;42.692;23.312;2023-07-29T08:04:14;95008.47;;;45.47;15.52
11124;BME280;5616;42.692;23.312;2023-07-29T08:06:41;95008.28;;;46.29;14.90
11124;BME280;5616;42.692;23.312;2023-07-29T08:09:07;95009.81;;;46.87;14.36
11124;BME280;5616;42.692;23.312;2023-07-29T08:11:34;95017.91;;;47.40;13.89
11124;BME280;5616;42.692;23.312;2023-07-29T08:14:02;95008.28;;;47.32;14.20
11124;BME280;5616;42.692;23.312;2023-07-29T08:16:29;95016.53;;;46.55;14.31
11124;BME280;5616;42.692;23.312;2023-07-29T08:18:56;95007.97;;;46.23;15.64
11124;BME280;5616;42.692;23.312;2023-07-29T08:21:22;95017.97;;;47.37;14.51
11124;BME280;5616;42.692;23.312;2023-07-29T08:23:48;95013.09;;;46.51;15.06
11124;BME280;5616;42.692;23.312;2023-07-29T08:26:15;95013.75;;;46.59;14.61
11124;BME280;5616;42.692;23.312;2023-07-29T08:28:42;95007.56;;;47.51;14.48
11124;BME280;5616;42.692;23.312;2023-07-29T08:31:10;95010.50;;;47.83;14.12
11124;BME280;5616;42.692;23.312;2023-07-29T08:33:37;95007.22;;;47.26;14.92
11124;BME280;5616;42.692;23.312;2023-07-29T08:36:04;95011.69;;;47.79;14.44
11124;BME280;5616;42.692;23.312;2023-07-29T08:38:31;95007.78;;;47.37;14.57
11124;BME280;5616;42.692;23.312;2023-07-29T08:41:03;95001.97;;;47.78;13.11
11124;BME280;5616;42.692;23.312;2023-07-29T08:43:32;95002.16;;;48.62;12.99
11124;BME280;5616;42.692;23.312;2023-07-29T08:45:59;94990.16;;;47.61;13.77
11124;BME280;5616;42.692;23.312;2023-07-29T08:48:32;94989.84;;;47.13;14.80
11124;BME280;5616;42.692;23.312;2023-07-29T08:51:03;94982.44;;;47.56;13.88
11124;BME280;5616;42.692;23.312;2023-07-29T08:53:30;94985.69;;;47.51;13.70
11124;BME280;5616;42.692;23.312;2023-07-29T08:55:57;94980.72;;;47.23;14.46
11124;BME280;5616;42.692;23.312;2023-07-29T08:58:25;94972.91;;;47.21;14.52
11124;BME280;5616;42.692;23.312;2023-07-29T09:00:52;94976.19;;;46.90;14.56
11124;BME280;5616;42.692;23.312;2023-07-29T09:03:19;94977.13;;;47.03;13.99
11124;BME280;5616;42.692;23.312;2023-07-29T09:05:47;94977.13;;;47.03;15.38
11124;BME280;5616;42.692;23.312;2023-07-29T09:08:14;94972.84;;;47.02;13.31
11124;BME280;5616;42.692;23.312;2023-07-29T09:10:41;94974.53;;;46.15;13.58
11124;BME280;5616;42.692;23.312;2023-07-29T09:13:08;94956.59;;;46.68;14.41
11124;BME280;5616;42.692;23.312;2023-07-29T09:15:36;94964.19;;;46.84;13.29
11124;BME280;5616;42.692;23.312;2023-07-29T09:18:10;94959.19;;;46.25;13.78
11124;BME280;5616;42.692;23.312;2023-07-29T09:20:37;94957.13;;;46.59;13.33
11124;BME280;5616;42.692;23.312;2023-07-29T09:23:07;94953.50;;;46.66;13.57
11124;BME280;5616;42.692;23.312;2023-07-29T09:25:35;94947.28;;;46.12;14.45
11124;BME280;5616;42.692;23.312;2023-07-29T09:28:08;94947.25;;;45.14;14.97
11124;BME280;5616;42.692;23.312;2023-07-29T09:30:35;94948.44;;;44.00;14.69
11124;BME280;5616;42.692;23.312;2023-07-29T09:33:02;94946.41;;;42.99;15.33
11124;BME280;5616;42.692;23.312;2023-07-29T09:35:30;94939.41;;;42.28;15.96
11124;BME280;5616;42.692;23.312;2023-07-29T09:37:58;94939.47;;;40.83;17.47
11124;BME280;5616;42.692;23.312;2023-07-29T09:40:27;94934.75;;;39.59;17.86
11124;BME280;5616;42.692;23.312;2023-07-29T09:42:54;94931.13;;;37.98;20.96
11124;BME280;5616;42.692;23.312;2023-07-29T09:45:22;94927.53;;;36.67;22.98
11124;BME280;5616;42.692;23.312;2023-07-29T09:47:49;94930.41;;;35.16;24.26
11124;BME280;5616;42.692;23.312;2023-07-29T09:50:16;94916.31;;;35.07;23.71
11124;BME280;5616;42.692;23.312;2023-07-29T09:52:44;94921.22;;;34.08;25.97
11124;BME280;5616;42.692;23.312;2023-07-29T09:55:12;94927.38;;;33.55;25.53
11124;BME280;5616;42.692;23.312;2023-07-29T09:57:41;94918.25;;;33.56;24.81
11124;BME280;5616;42.692;23.312;2023-07-29T10:00:11;94917.09;;;33.78;24.50
11124;BME280;5616;42.692;23.312;2023-07-29T10:02:39;94904.97;;;33.93;25.23
11124;BME280;5616;42.692;23.312;2023-07-29T10:05:06;94921.53;;;34.07;25.45
11124;BME280;5616;42.692;23.312;2023-07-29T10:07:34;94909.09;;;34.02;25.74
11124;BME280;5616;42.692;23.312;2023-07-29T10:10:04;94916.28;;;33.65;27.16
11124;BME280;5616;42.692;23.312;2023-07-29T10:12:32;94908.97;;;33.33;27.19
11124;BME280;5616;42.692;23.312;2023-07-29T10:15:04;94907.78;;;33.63;24.90
11124;BME280;5616;42.692;23.312;2023-07-29T10:17:34;94905.41;;;33.29;25.51
11124;BME280;5616;42.692;23.312;2023-07-29T10:20:03;94901.94;;;33.08;25.37
11124;BME280;5616;42.692;23.312;2023-07-29T10:22:33;94895.25;;;33.14;24.64
11124;BME280;5616;42.692;23.312;2023-07-29T10:25:04;94891.88;;;33.25;26.49
11124;BME280;5616;42.692;23.312;2023-07-29T10:27:37;94875.53;;;33.39;24.36
11124;BME280;5616;42.692;23.312;2023-07-29T10:30:11;94876.31;;;32.78;27.02
11124;BME280;5616;42.692;23.312;2023-07-29T10:32:38;94880.91;;;32.98;28.17
11124;BME280;5616;42.692;23.312;2023-07-29T10:35:08;94867.47;;;32.56;26.41
11124;BME280;5616;42.692;23.312;2023-07-29T10:37:35;94866.03;;;32.59;27.30
11124;BME280;5616;42.692;23.312;2023-07-29T10:40:06;94866.13;;;32.71;25.80
11124;BME280;5616;42.692;23.312;2023-07-29T10:42:33;94867.84;;;32.76;24.37
11124;BME280;5616;42.692;23.312;2023-07-29T10:45:00;94862.63;;;32.79;25.59
11124;BME280;5616;42.692;23.312;2023-07-29T10:47:28;94866.19;;;32.83;26.57
11124;BME280;5616;42.692;23.312;2023-07-29T10:49:56;94864.72;;;32.74;24.27
11124;BME280;5616;42.692;23.312;2023-07-29T10:52:39;94861.09;;;32.70;26.32
11124;BME280;5616;42.692;23.312;2023-07-29T10:55:25;94858.56;;;32.73;23.39
11124;BME280;5616;42.692;23.312;2023-07-29T10:57:54;94851.44;;;32.48;23.72
11124;BME280;5616;42.692;23.312;2023-07-29T11:00:31;94858.59;;;32.35;23.62
11124;BME280;5616;42.692;23.312;2023-07-29T11:03:01;94850.72;;;32.39;23.91
11124;BME280;5616;42.692;23.312;2023-07-29T11:05:42;94849.13;;;32.46;24.08
11124;BME280;5616;42.692;23.312;2023-07-29T11:08:21;94843.97;;;32.41;27.05
11124;BME280;5616;42.692;23.312;2023-07-29T11:11:06;94837.53;;;31.96;26.69
11124;BME280;5616;42.692;23.312;2023-07-29T11:13:35;94840.41;;;31.91;25.13
11124;BME280;5616;42.692;23.312;2023-07-29T11:16:04;94833.25;;;32.12;24.32
11124;BME280;5616;42.692;23.312;2023-07-29T11:18:34;94833.69;;;32.23;24.84
11124;BME280;5616;42.692;23.312;2023-07-29T11:21:03;94832.72;;;31.89;23.88
11124;BME280;5616;42.692;23.312;2023-07-29T11:23:31;94832.06;;;31.92;24.17
11124;BME280;5616;42.692;23.312;2023-07-29T11:25:58;94831.88;;;32.06;25.81
11124;BME280;5616;42.692;23.312;2023-07-29T11:28:26;94830.03;;;32.27;26.81
11124;BME280;5616;42.692;23.312;2023-07-29T11:30:54;94831.19;;;32.47;27.08
11124;BME280;5616;42.692;23.312;2023-07-29T11:33:23;94823.25;;;32.59;24.21
11124;BME280;5616;42.692;23.312;2023-07-29T11:35:52;94829.41;;;32.59;25.20
11124;BME280;5616;42.692;23.312;2023-07-29T11:38:20;94823.41;;;32.62;23.80
11124;BME280;5616;42.692;23.312;2023-07-29T11:40:55;94819.56;;;32.72;24.39
11124;BME280;5616;42.692;23.312;2023-07-29T11:43:22;94831.44;;;32.83;23.58
11124;BME280;5616;42.692;23.312;2023-07-29T11:45:48;94821.47;;;32.92;23.81
11124;BME280;5616;42.692;23.312;2023-07-29T11:48:15;94824.72;;;32.98;24.04
11124;BME280;5616;42.692;23.312;2023-07-29T11:50:42;94826.03;;;33.12;23.19
11124;BME280;5616;42.692;23.312;2023-07-29T11:53:11;94810.97;;;33.08;23.04
11124;BME280;5616;42.692;23.312;2023-07-29T11:55:38;94810.31;;;33.11;23.25
11124;BME280;5616;42.692;23.312;2023-07-29T11:58:04;94818.22;;;33.19;24.69
11124;BME280;5616;42.692;23.312;2023-07-29T12:00:31;94809.75;;;32.97;24.03
11124;BME280;5616;42.692;23.312;2023-07-29T12:02:58;94815.19;;;33.09;24.24
11124;BME280;5616;42.692;23.312;2023-07-29T12:05:26;94809.03;;;33.08;24.08
11124;BME280;5616;42.692;23.312;2023-07-29T12:07:53;94792.69;;;32.69;25.27
11124;BME280;5616;42.692;23.312;2023-07-29T12:10:21;94794.31;;;32.82;24.54
11124;BME280;5616;42.692;23.312;2023-07-29T12:12:49;94795.00;;;32.91;26.61
11124;BME280;5616;42.692;23.312;2023-07-29T12:15:23;94779.31;;;32.89;25.12
11124;BME280;5616;42.692;23.312;2023-07-29T12:17:53;94795.22;;;33.06;23.66
11124;BME280;5616;42.692;23.312;2023-07-29T12:20:21;94787.47;;;33.25;25.09
11124;BME280;5616;42.692;23.312;2023-07-29T12:22:52;94782.94;;;33.38;22.96
11124;BME280;5616;42.692;23.312;2023-07-29T12:25:19;94784.75;;;33.46;22.29
11124;BME280;5616;42.692;23.312;2023-07-29T12:27:47;94785.66;;;33.50;22.84
11124;BME280;5616;42.692;23.312;2023-07-29T12:30:14;94785.91;;;33.57;24.76
11124;BME280;5616;42.692;23.312;2023-07-29T12:32:46;94782.22;;;33.62;21.85
11124;BME280;5616;42.692;23.312;2023-07-29T12:35:13;94778.88;;;33.65;22.74
11124;BME280;5616;42.692;23.312;2023-07-29T12:37:40;94775.41;;;33.64;21.26
11124;BME280;5616;42.692;23.312;2023-07-29T12:40:20;94772.06;;;33.55;22.17
11124;BME280;5616;42.692;23.312;2023-07-29T12:42:49;94775.31;;;33.61;22.75
11124;BME280;5616;42.692;23.312;2023-07-29T12:45:16;94784.47;;;33.60;21.85
11124;BME280;5616;42.692;23.312;2023-07-29T12:47:44;94773.94;;;33.55;23.45
11124;BME280;5616;42.692;23.312;2023-07-29T12:50:10;94779.16;;;33.51;22.49
11124;BME280;5616;42.692;23.312;2023-07-29T12:52:37;94776.25;;;33.44;22.79
11124;BME280;5616;42.692;23.312;2023-07-29T12:55:05;94767.44;;;33.32;22.49
11124;BME280;5616;42.692;23.312;2023-07-29T12:57:34;94774.38;;;33.45;23.61
11124;BME280;5616;42.692;23.312;2023-07-29T13:00:07;94778.06;;;33.52;22.77
11124;BME280;5616;42.692;23.312;2023-07-29T13:02:34;94771.06;;;33.60;23.26
11124;BME280;5616;42.692;23.312;2023-07-29T13:05:01;94765.41;;;33.73;23.15